Time,TemperatureF,DewpointF,PressureIn,WindDirection,WindDirectionDegrees,WindSpeedMPH,WindSpeedGustMPH,Humidity,HourlyPrecipIn,Conditions,Clouds,dailyrainin,SoftwareType,DateUTC
2013-11-05 00:01:00,37.5,23.7,30.46,SE,145,2.0,2.0,57,0.00,,,0.00,WeatherCatV1.20B785,2013-11-05 05:01:00,
2013-11-05 00:04:00,37.5,23.2,30.46,South,169,2.0,3.0,56,0.00,,,0.00,WeatherCatV1.20B785,2013-11-05 05:04:00,
2013-11-05 00:05:00,37.5,23.2,30.46,ESE,120,3.0,3.0,56,0.00,,,0.00,WeatherCatV1.20B785,2013-11-05 05:05:00,
2013-11-05 00:07:00,37.5,23.2,30.46,SE,145,4.0,5.0,56,0.00,,,0.00,WeatherCatV1.20B785,2013-11-05 05:07:00,
2013-11-05 00:09:00,37.5,23.2,30.46,ESE,123,1.0,4.0,56,0.00,,,0.00,WeatherCatV1.20B785,2013-11-05 05:09:00,
2013-11-05 00:14:00,37.3,23.5,30.46,ESE,111,3.0,3.0,57,0.00,,,0.00,WeatherCatV1.20B785,2013-11-05 05:14:00,
2013-11-05 00:15:00,37.3,23.5,30.46,SSE,154,4.0,4.0,57,0.00,,,0.00,WeatherCatV1.20B785,2013-11-05 05:15:00,
2013-11-05 00:20:00,37.3,23.9,30.46,SSE,155,2.0,3.0,58,0.00,,,0.00,WeatherCatV1.20B785,2013-11-05 05:20:00,
2013-11-05 00:25:00,37.1,23.7,30.46,ESE,121,1.0,4.0,58,0.00,,,0.00,WeatherCatV1.20B785,2013-11-05 05:25:00,
2013-11-05 00:30:00,37.2,23.8,30.46,SE,142,4.0,5.0,58,0.00,,,0.00,WeatherCatV1.20B785,2013-11-05 05:30:00,
2013-11-05 00:35:00,37.4,24.0,30.46,ESE,109,1.0,3.0,58,0.00,,,0.00,WeatherCatV1.20B785,2013-11-05 05:35:00,
2013-11-05 00:40:00,37.4,24.0,30.46,SE,145,2.0,5.0,58,0.00,,,0.00,WeatherCatV1.20B785,2013-11-05 05:40:00,
2013-11-05 00:45:00,37.5,24.1,30.46,South,169,3.0,5.0,58,0.00,,,0.00,WeatherCatV1.20B785,2013-11-05 05:45:00,
2013-11-05 00:50:00,37.6,24.2,30.46,SSE,149,2.0,4.0,58,0.00,,,0.00,WeatherCatV1.20B785,2013-11-05 05:50:00,
2013-11-05 00:55:00,37.5,24.5,30.46,SE,131,2.0,4.0,59,0.00,,,0.00,WeatherCatV1.20B785,2013-11-05 05:55:00,
2013-11-05 01:00:00,37.5,24.1,30.46,SE,141,4.0,6.0,58,0.00,,,0.00,WeatherCatV1.20B785,2013-11-05 06:00:00,
2013-11-05 01:05:00,37.6,24.2,30.46,SE,146,2.0,5.0,58,0.00,,,0.00,WeatherCatV1.20B785,2013-11-05 06:05:00,
2013-11-05 01:10:00,37.6,24.6,30.46,SSE,153,1.0,2.0,59,0.00,,,0.00,WeatherCatV1.20B785,2013-11-05 06:10:00,
2013-11-05 01:15:00,37.5,24.9,30.45,ESE,122,1.0,2.0,60,0.00,,,0.00,WeatherCatV1.20B785,2013-11-05 06:15:00,
2013-11-05 01:20:00,37.2,25.0,30.46,ESE,117,0.0,1.0,61,0.00,,,0.00,WeatherCatV1.20B785,2013-11-05 06:20:00,
2013-11-05 01:25:00,36.9,24.7,30.46,ESE,119,1.0,1.0,61,0.00,,,0.00,WeatherCatV1.20B785,2013-11-05 06:25:00,
2013-11-05 01:30:00,36.8,25.0,30.46,ESE,111,0.0,1.0,62,0.00,,,0.00,WeatherCatV1.20B785,2013-11-05 06:30:00,
2013-11-05 01:35:00,36.6,25.2,30.46,SE,129,0.0,2.0,63,0.00,,,0.00,WeatherCatV1.20B785,2013-11-05 06:35:00,
2013-11-05 01:40:00,36.5,25.1,30.46,East,87,0.0,1.0,63,0.00,,,0.00,WeatherCatV1.20B785,2013-11-05 06:40:00,
2013-11-05 01:45:00,36.4,25.0,30.46,East,93,0.0,1.0,63,0.00,,,0.00,WeatherCatV1.20B785,2013-11-05 06:45:00,
2013-11-05 01:50:00,36.3,24.9,30.46,SE,132,0.0,2.0,63,0.00,,,0.00,WeatherCatV1.20B785,2013-11-05 06:50:00,
2013-11-05 01:55:00,36.2,24.8,30.46,East,96,0.0,1.0,63,0.00,,,0.00,WeatherCatV1.20B785,2013-11-05 06:55:00,
2013-11-05 02:00:00,36.1,25.1,30.46,East,79,1.0,1.0,64,0.00,,,0.00,WeatherCatV1.20B785,2013-11-05 07:00:00,
2013-11-05 02:05:00,36.0,24.6,30.47,ESE,122,0.0,1.0,63,0.00,,,0.00,WeatherCatV1.20B785,2013-11-05 07:05:00,
2013-11-05 02:10:00,35.8,25.2,30.47,SE,139,0.0,0.0,65,0.00,,,0.00,WeatherCatV1.20B785,2013-11-05 07:10:00,
2013-11-05 02:15:00,35.5,25.3,30.47,SE,129,0.0,1.0,66,0.00,,,0.00,WeatherCatV1.20B785,2013-11-05 07:15:00,
2013-11-05 02:20:00,35.2,25.4,30.46,SE,134,0.0,1.0,67,0.00,,,0.00,WeatherCatV1.20B785,2013-11-05 07:20:00,
2013-11-05 02:25:00,35.0,25.2,30.46,ESE,109,0.0,1.0,67,0.00,,,0.00,WeatherCatV1.20B785,2013-11-05 07:25:00,
2013-11-05 02:30:00,34.8,25.3,30.46,SE,145,0.0,1.0,68,0.00,,,0.00,WeatherCatV1.20B785,2013-11-05 07:30:00,
2013-11-05 02:35:00,34.7,25.2,30.46,East,85,0.0,0.0,68,0.00,,,0.00,WeatherCatV1.20B785,2013-11-05 07:35:00,
2013-11-05 02:40:00,34.7,24.9,30.47,ESE,116,0.0,1.0,67,0.00,,,0.00,WeatherCatV1.20B785,2013-11-05 07:40:00,
2013-11-05 02:45:00,34.8,25.0,30.47,ESE,122,0.0,0.0,67,0.00,,,0.00,WeatherCatV1.20B785,2013-11-05 07:45:00,
2013-11-05 02:50:00,34.8,25.3,30.47,SE,134,0.0,1.0,68,0.00,,,0.00,WeatherCatV1.20B785,2013-11-05 07:50:00,
2013-11-05 02:55:00,35.1,25.3,30.46,SE,133,1.0,1.0,67,0.00,,,0.00,WeatherCatV1.20B785,2013-11-05 07:55:00,
2013-11-05 03:00:00,35.2,25.4,30.47,SE,129,0.0,1.0,67,0.00,,,0.00,WeatherCatV1.20B785,2013-11-05 08:00:00,
2013-11-05 03:05:00,35.3,25.5,30.47,ESE,121,0.0,1.0,67,0.00,,,0.00,WeatherCatV1.20B785,2013-11-05 08:05:00,
2013-11-05 03:10:00,35.4,25.5,30.47,ESE,122,1.0,1.0,67,0.00,,,0.00,WeatherCatV1.20B785,2013-11-05 08:10:00,
2013-11-05 03:15:00,35.4,25.5,30.47,SE,133,0.0,2.0,67,0.00,,,0.00,WeatherCatV1.20B785,2013-11-05 08:15:00,
2013-11-05 03:20:00,35.3,25.5,30.46,SE,136,0.0,3.0,67,0.00,,,0.00,WeatherCatV1.20B785,2013-11-05 08:20:00,
2013-11-05 03:25:00,35.4,25.2,30.47,SE,146,0.0,2.0,66,0.00,,,0.00,WeatherCatV1.20B785,2013-11-05 08:25:00,
2013-11-05 03:30:00,35.5,25.6,30.47,SE,137,1.0,2.0,67,0.00,,,0.00,WeatherCatV1.20B785,2013-11-05 08:30:00,
2013-11-05 03:35:00,35.4,25.5,30.47,ESE,122,1.0,2.0,67,0.00,,,0.00,WeatherCatV1.20B785,2013-11-05 08:35:00,
2013-11-05 03:40:00,35.3,25.8,30.47,East,86,1.0,2.0,68,0.00,,,0.00,WeatherCatV1.20B785,2013-11-05 08:40:00,
2013-11-05 03:45:00,35.2,25.7,30.47,SE,130,2.0,2.0,68,0.00,,,0.00,WeatherCatV1.20B785,2013-11-05 08:45:00,
2013-11-05 03:50:00,35.1,25.6,30.47,SE,124,0.0,1.0,68,0.00,,,0.00,WeatherCatV1.20B785,2013-11-05 08:50:00,
2013-11-05 03:55:00,35.1,25.6,30.47,ESE,123,1.0,2.0,68,0.00,,,0.00,WeatherCatV1.20B785,2013-11-05 08:55:00,
2013-11-05 04:00:00,35.0,25.2,30.47,SE,130,1.0,2.0,67,0.00,,,0.00,WeatherCatV1.20B785,2013-11-05 09:00:00,
2013-11-05 04:05:00,34.9,25.4,30.47,SE,132,1.0,1.0,68,0.00,,,0.00,WeatherCatV1.20B785,2013-11-05 09:05:00,
2013-11-05 04:10:00,34.7,25.6,30.47,SE,138,1.0,2.0,69,0.00,,,0.00,WeatherCatV1.20B785,2013-11-05 09:10:00,
2013-11-05 04:15:00,34.5,25.7,30.48,SE,132,0.0,0.0,70,0.00,,,0.00,WeatherCatV1.20B785,2013-11-05 09:15:00,
2013-11-05 04:20:00,34.0,25.6,30.48,ESE,121,1.0,1.0,71,0.00,,,0.00,WeatherCatV1.20B785,2013-11-05 09:20:00,
2013-11-05 04:25:00,33.6,25.9,30.48,SSE,153,0.0,0.0,73,0.00,,,0.00,WeatherCatV1.20B785,2013-11-05 09:25:00,
2013-11-05 04:30:00,33.1,25.7,30.48,SSE,149,1.0,1.0,74,0.00,,,0.00,WeatherCatV1.20B785,2013-11-05 09:30:00,
2013-11-05 04:35:00,32.9,25.5,30.48,SSE,149,0.0,1.0,74,0.00,,,0.00,WeatherCatV1.20B785,2013-11-05 09:35:00,
2013-11-05 04:40:00,32.8,25.8,30.48,SSE,150,0.0,0.0,75,0.00,,,0.00,WeatherCatV1.20B785,2013-11-05 09:40:00,
2013-11-05 04:45:00,32.6,25.9,30.48,SSE,158,0.0,0.0,76,0.00,,,0.00,WeatherCatV1.20B785,2013-11-05 09:45:00,
2013-11-05 04:50:00,32.5,25.8,30.48,SSE,159,0.0,1.0,76,0.00,,,0.00,WeatherCatV1.20B785,2013-11-05 09:50:00,
2013-11-05 04:55:00,32.5,26.1,30.48,SSE,154,1.0,1.0,77,0.00,,,0.00,WeatherCatV1.20B785,2013-11-05 09:55:00,
2013-11-05 05:00:00,32.5,26.1,30.48,SE,139,0.0,1.0,77,0.00,,,0.00,WeatherCatV1.20B785,2013-11-05 10:00:00,
2013-11-05 05:05:00,32.8,25.8,30.48,SE,138,1.0,3.0,75,0.00,,,0.00,WeatherCatV1.20B785,2013-11-05 10:05:00,
2013-11-05 05:10:00,33.1,25.7,30.48,SE,136,0.0,2.0,74,0.00,,,0.00,WeatherCatV1.20B785,2013-11-05 10:10:00,
2013-11-05 05:15:00,33.3,25.6,30.48,SE,124,2.0,3.0,73,0.00,,,0.00,WeatherCatV1.20B785,2013-11-05 10:15:00,
2013-11-05 05:20:00,33.4,25.7,30.47,SE,125,0.0,2.0,73,0.00,,,0.00,WeatherCatV1.20B785,2013-11-05 10:20:00,
2013-11-05 05:25:00,33.6,25.9,30.47,ESE,121,1.0,2.0,73,0.00,,,0.00,WeatherCatV1.20B785,2013-11-05 10:25:00,
2013-11-05 05:30:00,33.9,26.2,30.48,SE,124,0.0,2.0,73,0.00,,,0.00,WeatherCatV1.20B785,2013-11-05 10:30:00,
2013-11-05 05:35:00,34.2,26.5,30.48,SE,139,0.0,1.0,73,0.00,,,0.00,WeatherCatV1.20B785,2013-11-05 10:35:00,
2013-11-05 05:40:00,34.4,26.7,30.48,ESE,122,0.0,1.0,73,0.00,,,0.00,WeatherCatV1.20B785,2013-11-05 10:40:00,
2013-11-05 05:45:00,34.7,27.0,30.48,SE,124,0.0,1.0,73,0.00,,,0.00,WeatherCatV1.20B785,2013-11-05 10:45:00,
2013-11-05 05:50:00,34.8,27.0,30.48,East,94,0.0,1.0,73,0.00,,,0.00,WeatherCatV1.20B785,2013-11-05 10:50:00,
2013-11-05 05:55:00,34.9,26.8,30.48,SE,133,1.0,2.0,72,0.00,,,0.00,WeatherCatV1.20B785,2013-11-05 10:55:00,
2013-11-05 06:00:00,35.1,26.7,30.48,ESE,112,3.0,3.0,71,0.00,,,0.00,WeatherCatV1.20B785,2013-11-05 11:00:00,
2013-11-05 06:05:00,35.2,26.8,30.48,SE,133,1.0,3.0,71,0.00,,,0.00,WeatherCatV1.20B785,2013-11-05 11:05:00,
2013-11-05 06:10:00,35.3,26.9,30.48,SSE,155,1.0,4.0,71,0.00,,,0.00,WeatherCatV1.20B785,2013-11-05 11:10:00,
2013-11-05 06:15:00,35.4,27.0,30.49,SE,145,1.0,2.0,71,0.00,,,0.00,WeatherCatV1.20B785,2013-11-05 11:15:00,
2013-11-05 06:20:00,35.4,27.3,30.48,SE,126,0.0,2.0,72,0.00,,,0.00,WeatherCatV1.20B785,2013-11-05 11:20:00,
2013-11-05 06:25:00,35.4,27.3,30.48,SE,136,1.0,4.0,72,0.00,,,0.00,WeatherCatV1.20B785,2013-11-05 11:25:00,
2013-11-05 06:30:00,35.6,27.1,30.48,ESE,105,2.0,3.0,71,0.00,,,0.00,WeatherCatV1.20B785,2013-11-05 11:30:00,
2013-11-05 06:35:00,35.6,27.1,30.48,SE,138,1.0,3.0,71,0.00,,,0.00,WeatherCatV1.20B785,2013-11-05 11:35:00,
2013-11-05 06:40:00,35.6,27.1,30.48,SE,133,1.0,3.0,71,0.00,,,0.00,WeatherCatV1.20B785,2013-11-05 11:40:00,
2013-11-05 06:45:00,35.6,27.1,30.48,SE,130,2.0,3.0,71,0.00,,,0.00,WeatherCatV1.20B785,2013-11-05 11:45:00,
2013-11-05 06:50:00,35.6,27.5,30.48,SE,126,1.0,2.0,72,0.00,,,0.00,WeatherCatV1.20B785,2013-11-05 11:50:00,
2013-11-05 06:55:00,35.5,27.7,30.48,East,86,0.0,1.0,73,0.00,,,0.00,WeatherCatV1.20B785,2013-11-05 11:55:00,
2013-11-05 07:00:00,35.5,27.7,30.48,SE,131,0.0,2.0,73,0.00,,,0.00,WeatherCatV1.20B785,2013-11-05 12:00:00,
2013-11-05 07:05:00,35.6,27.5,30.48,East,101,3.0,3.0,72,0.00,,,0.00,WeatherCatV1.20B785,2013-11-05 12:05:00,
2013-11-05 07:10:00,35.7,27.6,30.49,SE,138,1.0,3.0,72,0.00,,,0.00,WeatherCatV1.20B785,2013-11-05 12:10:00,
2013-11-05 07:15:00,35.7,27.6,30.49,ESE,113,3.0,3.0,72,0.00,,,0.00,WeatherCatV1.20B785,2013-11-05 12:15:00,
2013-11-05 07:20:00,35.6,27.5,30.49,ESE,120,2.0,2.0,72,0.00,,,0.00,WeatherCatV1.20B785,2013-11-05 12:20:00,
2013-11-05 07:25:00,35.5,27.7,30.49,SE,124,1.0,3.0,73,0.00,,,0.00,WeatherCatV1.20B785,2013-11-05 12:25:00,
2013-11-05 07:30:00,35.6,27.5,30.48,SE,133,2.0,2.0,72,0.00,,,0.00,WeatherCatV1.20B785,2013-11-05 12:30:00,
2013-11-05 07:35:00,35.7,27.9,30.49,ESE,117,1.0,2.0,73,0.00,,,0.00,WeatherCatV1.20B785,2013-11-05 12:35:00,
2013-11-05 07:40:00,35.7,27.9,30.49,SE,146,0.0,2.0,73,0.00,,,0.00,WeatherCatV1.20B785,2013-11-05 12:40:00,
2013-11-05 07:45:00,35.8,28.0,30.50,SE,133,0.0,1.0,73,0.00,,,0.00,WeatherCatV1.20B785,2013-11-05 12:45:00,
2013-11-05 07:50:00,35.9,28.4,30.50,ESE,118,1.0,1.0,74,0.00,,,0.00,WeatherCatV1.20B785,2013-11-05 12:50:00,
2013-11-05 07:55:00,36.1,28.6,30.50,ESE,121,0.0,1.0,74,0.00,,,0.00,WeatherCatV1.20B785,2013-11-05 12:55:00,
2013-11-05 08:00:00,36.4,28.9,30.51,ESE,116,0.0,1.0,74,0.00,,,0.00,WeatherCatV1.20B785,2013-11-05 13:00:00,
2013-11-05 08:05:00,36.8,29.0,30.51,SE,139,0.0,2.0,73,0.00,,,0.00,WeatherCatV1.20B785,2013-11-05 13:05:00,
2013-11-05 08:10:00,37.2,29.4,30.51,East,89,3.0,3.0,73,0.00,,,0.00,WeatherCatV1.20B785,2013-11-05 13:10:00,
2013-11-05 08:15:00,37.6,29.4,30.50,ESE,113,0.0,2.0,72,0.00,,,0.00,WeatherCatV1.20B785,2013-11-05 13:15:00,
2013-11-05 08:20:00,38.0,29.5,30.50,East,84,1.0,3.0,71,0.00,,,0.00,WeatherCatV1.20B785,2013-11-05 13:20:00,
2013-11-05 08:25:00,38.3,29.4,30.51,ESE,113,0.0,2.0,70,0.00,,,0.00,WeatherCatV1.20B785,2013-11-05 13:25:00,
2013-11-05 08:30:00,38.6,29.7,30.51,ESE,115,0.0,2.0,70,0.00,,,0.00,WeatherCatV1.20B785,2013-11-05 13:30:00,
2013-11-05 08:35:00,38.7,29.4,30.51,ESE,109,1.0,1.0,69,0.00,,,0.00,WeatherCatV1.20B785,2013-11-05 13:35:00,
2013-11-05 08:40:00,38.9,30.0,30.51,SE,124,0.0,4.0,70,0.00,,,0.00,WeatherCatV1.20B785,2013-11-05 13:40:00,
2013-11-05 08:45:00,39.3,30.0,30.51,SE,124,1.0,3.0,69,0.00,,,0.00,WeatherCatV1.20B785,2013-11-05 13:45:00,
2013-11-05 08:50:00,39.7,30.7,30.50,SE,141,0.0,2.0,70,0.00,,,0.00,WeatherCatV1.20B785,2013-11-05 13:50:00,
2013-11-05 08:55:00,40.1,30.4,30.50,ESE,117,1.0,4.0,68,0.00,,,0.00,WeatherCatV1.20B785,2013-11-05 13:55:00,
2013-11-05 09:00:00,40.5,30.4,30.51,ESE,117,1.0,2.0,67,0.00,,,0.00,WeatherCatV1.20B785,2013-11-05 14:00:00,
2013-11-05 09:05:00,41.1,31.0,30.51,East,101,2.0,4.0,67,0.00,,,0.00,WeatherCatV1.20B785,2013-11-05 14:05:00,
2013-11-05 09:10:00,41.6,31.1,30.50,ESE,114,1.0,2.0,66,0.00,,,0.00,WeatherCatV1.20B785,2013-11-05 14:10:00,
2013-11-05 09:15:00,42.1,31.2,30.50,SSE,154,3.0,4.0,65,0.00,,,0.00,WeatherCatV1.20B785,2013-11-05 14:15:00,
2013-11-05 09:20:00,42.4,31.5,30.50,ESE,114,3.0,4.0,65,0.00,,,0.00,WeatherCatV1.20B785,2013-11-05 14:20:00,
2013-11-05 09:25:00,42.5,31.2,30.50,South,169,1.0,4.0,64,0.00,,,0.00,WeatherCatV1.20B785,2013-11-05 14:25:00,
2013-11-05 09:30:00,42.9,31.2,30.50,ESE,119,3.0,6.0,63,0.00,,,0.00,WeatherCatV1.20B785,2013-11-05 14:30:00,
2013-11-05 09:35:00,43.1,30.6,30.50,ESE,118,3.0,6.0,61,0.00,,,0.00,WeatherCatV1.20B785,2013-11-05 14:35:00,
2013-11-05 09:40:00,43.3,31.2,30.49,SSE,153,3.0,6.0,62,0.00,,,0.00,WeatherCatV1.20B785,2013-11-05 14:40:00,
2013-11-05 09:45:00,43.3,30.8,30.49,ESE,113,3.0,4.0,61,0.00,,,0.00,WeatherCatV1.20B785,2013-11-05 14:45:00,
2013-11-05 09:50:00,43.4,30.9,30.49,SSE,148,4.0,6.0,61,0.00,,,0.00,WeatherCatV1.20B785,2013-11-05 14:50:00,
2013-11-05 09:55:00,43.5,31.0,30.49,SSE,152,5.0,9.0,61,0.00,,,0.00,WeatherCatV1.20B785,2013-11-05 14:55:00,
2013-11-05 10:00:00,43.5,31.4,30.49,SE,141,2.0,4.0,62,0.00,,,0.00,WeatherCatV1.20B785,2013-11-05 15:00:00,
2013-11-05 10:05:00,43.6,30.6,30.49,SSE,149,6.0,6.0,60,0.00,,,0.00,WeatherCatV1.20B785,2013-11-05 15:05:00,
2013-11-05 10:10:00,43.6,30.6,30.49,SSE,151,3.0,6.0,60,0.00,,,0.00,WeatherCatV1.20B785,2013-11-05 15:10:00,
2013-11-05 10:15:00,43.7,31.5,30.48,SE,136,2.0,3.0,62,0.00,,,0.00,WeatherCatV1.20B785,2013-11-05 15:15:00,
2013-11-05 10:20:00,44.0,31.0,30.48,SSE,159,6.0,7.0,60,0.00,,,0.00,WeatherCatV1.20B785,2013-11-05 15:20:00,
2013-11-05 10:25:00,44.4,31.8,30.48,SE,146,5.0,5.0,61,0.00,,,0.00,WeatherCatV1.20B785,2013-11-05 15:25:00,
2013-11-05 10:30:00,44.9,31.9,30.48,SE,141,1.0,5.0,60,0.00,,,0.00,WeatherCatV1.20B785,2013-11-05 15:30:00,
2013-11-05 10:35:00,45.4,31.9,30.48,SSE,156,2.0,5.0,59,0.00,,,0.00,WeatherCatV1.20B785,2013-11-05 15:35:00,
2013-11-05 10:40:00,45.9,32.0,30.48,SE,141,2.0,4.0,58,0.00,,,0.00,WeatherCatV1.20B785,2013-11-05 15:40:00,
2013-11-05 10:45:00,46.2,32.2,30.48,SE,138,2.0,3.0,58,0.00,,,0.00,WeatherCatV1.20B785,2013-11-05 15:45:00,
2013-11-05 10:50:00,46.3,32.3,30.48,SSE,156,2.0,5.0,58,0.00,,,0.00,WeatherCatV1.20B785,2013-11-05 15:50:00,
2013-11-05 10:55:00,46.7,32.3,30.48,SSE,149,4.0,9.0,57,0.00,,,0.00,WeatherCatV1.20B785,2013-11-05 15:55:00,
2013-11-05 11:00:00,46.9,32.5,30.49,SE,127,3.0,5.0,57,0.00,,,0.00,WeatherCatV1.20B785,2013-11-05 16:00:00,
2013-11-05 11:05:00,47.7,33.2,30.48,SE,139,2.0,4.0,57,0.00,,,0.00,WeatherCatV1.20B785,2013-11-05 16:05:00,
2013-11-05 11:10:00,48.7,33.7,30.48,SE,142,4.0,5.0,56,0.00,,,0.00,WeatherCatV1.20B785,2013-11-05 16:10:00,
2013-11-05 11:15:00,49.0,33.5,30.47,East,100,2.0,4.0,55,0.00,,,0.00,WeatherCatV1.20B785,2013-11-05 16:15:00,
2013-11-05 11:20:00,49.1,33.6,30.47,SSE,164,3.0,6.0,55,0.00,,,0.00,WeatherCatV1.20B785,2013-11-05 16:20:00,
2013-11-05 11:25:00,49.4,33.9,30.48,South,179,5.0,5.0,55,0.00,,,0.00,WeatherCatV1.20B785,2013-11-05 16:25:00,
2013-11-05 11:30:00,49.4,33.0,30.48,SSE,149,4.0,7.0,53,0.00,,,0.00,WeatherCatV1.20B785,2013-11-05 16:30:00,
2013-11-05 11:35:00,49.5,34.0,30.47,SW,228,4.0,6.0,55,0.00,,,0.00,WeatherCatV1.20B785,2013-11-05 16:35:00,
2013-11-05 11:40:00,49.4,33.0,30.47,SSE,149,6.0,8.0,53,0.00,,,0.00,WeatherCatV1.20B785,2013-11-05 16:40:00,
2013-11-05 11:45:00,49.1,33.2,30.47,SE,142,10.0,10.0,54,0.00,,,0.00,WeatherCatV1.20B785,2013-11-05 16:45:00,
2013-11-05 11:50:00,49.0,32.6,30.47,South,181,5.0,7.0,53,0.00,,,0.00,WeatherCatV1.20B785,2013-11-05 16:50:00,
2013-11-05 11:55:00,49.1,33.2,30.47,South,169,4.0,7.0,54,0.00,,,0.00,WeatherCatV1.20B785,2013-11-05 16:55:00,
2013-11-05 12:00:00,49.3,33.8,30.47,SSE,153,4.0,4.0,55,0.00,,,0.00,WeatherCatV1.20B785,2013-11-05 17:00:00,
2013-11-05 12:05:00,49.3,33.4,30.46,SSE,162,4.0,7.0,54,0.00,,,0.00,WeatherCatV1.20B785,2013-11-05 17:05:00,
2013-11-05 12:10:00,49.1,33.6,30.47,South,176,7.0,8.0,55,0.00,,,0.00,WeatherCatV1.20B785,2013-11-05 17:10:00,
2013-11-05 12:15:00,49.0,33.5,30.47,SSE,156,4.0,4.0,55,0.00,,,0.00,WeatherCatV1.20B785,2013-11-05 17:15:00,
2013-11-05 12:20:00,49.1,33.6,30.47,SSW,213,2.0,3.0,55,0.00,,,0.00,WeatherCatV1.20B785,2013-11-05 17:20:00,
2013-11-05 12:25:00,49.2,33.7,30.47,SE,143,3.0,3.0,55,0.00,,,0.00,WeatherCatV1.20B785,2013-11-05 17:25:00,
2013-11-05 12:30:00,49.2,33.3,30.46,SSE,167,2.0,5.0,54,0.00,,,0.00,WeatherCatV1.20B785,2013-11-05 17:30:00,
2013-11-05 12:35:00,49.3,33.4,30.46,SE,143,5.0,5.0,54,0.00,,,0.00,WeatherCatV1.20B785,2013-11-05 17:35:00,
2013-11-05 12:40:00,49.5,34.0,30.45,SSE,149,1.0,4.0,55,0.00,,,0.00,WeatherCatV1.20B785,2013-11-05 17:40:00,
2013-11-05 12:45:00,49.5,34.0,30.45,South,170,3.0,6.0,55,0.00,,,0.00,WeatherCatV1.20B785,2013-11-05 17:45:00,
2013-11-05 12:50:00,49.5,33.5,30.45,SSE,152,7.0,7.0,54,0.00,,,0.00,WeatherCatV1.20B785,2013-11-05 17:50:00,
2013-11-05 12:55:00,49.5,33.5,30.45,SE,132,2.0,7.0,54,0.00,,,0.00,WeatherCatV1.20B785,2013-11-05 17:55:00,
2013-11-05 13:00:00,49.7,33.7,30.45,SE,129,3.0,4.0,54,0.00,,,0.00,WeatherCatV1.20B785,2013-11-05 18:00:00,
2013-11-05 13:05:00,49.9,34.4,30.45,SSE,155,3.0,5.0,55,0.00,,,0.00,WeatherCatV1.20B785,2013-11-05 18:05:00,
2013-11-05 13:10:00,50.1,34.1,30.44,SE,139,4.0,6.0,54,0.00,,,0.00,WeatherCatV1.20B785,2013-11-05 18:10:00,
2013-11-05 13:15:00,50.3,34.8,30.44,SSE,159,6.0,6.0,55,0.00,,,0.00,WeatherCatV1.20B785,2013-11-05 18:15:00,
2013-11-05 13:20:00,50.5,34.5,30.44,SSE,155,5.0,5.0,54,0.00,,,0.00,WeatherCatV1.20B785,2013-11-05 18:20:00,
2013-11-05 13:25:00,50.8,34.8,30.44,South,177,2.0,5.0,54,0.00,,,0.00,WeatherCatV1.20B785,2013-11-05 18:25:00,
2013-11-05 13:30:00,51.0,35.0,30.43,SSE,150,5.0,7.0,54,0.00,,,0.00,WeatherCatV1.20B785,2013-11-05 18:30:00,
2013-11-05 13:35:00,51.2,35.1,30.43,SE,135,3.0,3.0,54,0.00,,,0.00,WeatherCatV1.20B785,2013-11-05 18:35:00,
2013-11-05 13:40:00,51.4,33.9,30.43,SE,141,4.0,7.0,51,0.00,,,0.00,WeatherCatV1.20B785,2013-11-05 18:40:00,
2013-11-05 13:45:00,51.5,34.9,30.43,SSE,152,6.0,7.0,53,0.00,,,0.00,WeatherCatV1.20B785,2013-11-05 18:45:00,
2013-11-05 13:50:00,51.7,35.1,30.43,ESE,105,3.0,6.0,53,0.00,,,0.00,WeatherCatV1.20B785,2013-11-05 18:50:00,
2013-11-05 13:55:00,51.9,35.8,30.43,South,169,5.0,6.0,54,0.00,,,0.00,WeatherCatV1.20B785,2013-11-05 18:55:00,
2013-11-05 14:00:00,52.1,35.0,30.42,SE,141,5.0,7.0,52,0.00,,,0.00,WeatherCatV1.20B785,2013-11-05 19:00:00,
2013-11-05 14:05:00,52.0,34.9,30.42,SSE,148,3.0,6.0,52,0.00,,,0.00,WeatherCatV1.20B785,2013-11-05 19:05:00,
2013-11-05 14:10:00,52.1,35.0,30.42,SSE,153,4.0,5.0,52,0.00,,,0.00,WeatherCatV1.20B785,2013-11-05 19:10:00,
2013-11-05 14:15:00,52.3,34.7,30.41,SSE,155,6.0,6.0,51,0.00,,,0.00,WeatherCatV1.20B785,2013-11-05 19:15:00,
2013-11-05 14:20:00,52.4,34.8,30.41,SSE,162,4.0,8.0,51,0.00,,,0.00,WeatherCatV1.20B785,2013-11-05 19:20:00,
2013-11-05 14:25:00,52.5,34.4,30.42,South,174,3.0,7.0,50,0.00,,,0.00,WeatherCatV1.20B785,2013-11-05 19:25:00,
2013-11-05 14:30:00,52.8,35.2,30.42,South,188,4.0,4.0,51,0.00,,,0.00,WeatherCatV1.20B785,2013-11-05 19:30:00,
2013-11-05 14:35:00,53.2,35.5,30.42,SSE,155,4.0,4.0,51,0.00,,,0.00,WeatherCatV1.20B785,2013-11-05 19:35:00,
2013-11-05 14:40:00,53.2,35.5,30.42,SE,144,3.0,5.0,51,0.00,,,0.00,WeatherCatV1.20B785,2013-11-05 19:40:00,
2013-11-05 14:45:00,53.1,35.0,30.42,SE,146,4.0,6.0,50,0.00,,,0.00,WeatherCatV1.20B785,2013-11-05 19:45:00,
2013-11-05 14:50:00,53.1,35.9,30.41,SE,138,6.0,7.0,52,0.00,,,0.00,WeatherCatV1.20B785,2013-11-05 19:50:00,
2013-11-05 14:55:00,53.2,36.0,30.41,SE,139,4.0,5.0,52,0.00,,,0.00,WeatherCatV1.20B785,2013-11-05 19:55:00,
2013-11-05 15:00:00,53.3,35.1,30.41,SE,130,4.0,5.0,50,0.00,,,0.00,WeatherCatV1.20B785,2013-11-05 20:00:00,
2013-11-05 15:05:00,53.5,35.3,30.42,SE,141,5.0,7.0,50,0.00,,,0.00,WeatherCatV1.20B785,2013-11-05 20:05:00,
2013-11-05 15:10:00,53.8,35.6,30.42,SSE,159,6.0,6.0,50,0.00,,,0.00,WeatherCatV1.20B785,2013-11-05 20:10:00,
2013-11-05 15:15:00,53.7,35.5,30.42,SSE,158,2.0,6.0,50,0.00,,,0.00,WeatherCatV1.20B785,2013-11-05 20:15:00,
2013-11-05 15:21:00,53.6,35.4,30.42,SSE,162,4.0,7.0,50,0.00,,,0.00,WeatherCatV1.20B785,2013-11-05 20:21:00,
2013-11-05 15:26:00,53.5,35.8,30.41,SSE,156,3.0,4.0,51,0.00,,,0.00,WeatherCatV1.20B785,2013-11-05 20:26:00,
2013-11-05 15:31:00,53.4,36.2,30.41,SE,143,1.0,3.0,52,0.00,,,0.00,WeatherCatV1.20B785,2013-11-05 20:31:00,
2013-11-05 15:36:00,53.4,36.2,30.41,SSE,166,3.0,4.0,52,0.00,,,0.00,WeatherCatV1.20B785,2013-11-05 20:36:00,
2013-11-05 15:41:00,53.4,35.2,30.41,ESE,121,1.0,4.0,50,0.00,,,0.00,WeatherCatV1.20B785,2013-11-05 20:41:00,
2013-11-05 15:46:00,53.3,37.1,30.41,SE,139,3.0,3.0,54,0.00,,,0.00,WeatherCatV1.20B785,2013-11-05 20:46:00,
2013-11-05 15:51:00,53.2,36.5,30.40,SE,131,2.0,3.0,53,0.00,,,0.00,WeatherCatV1.20B785,2013-11-05 20:51:00,
2013-11-05 15:56:00,53.0,36.8,30.39,SE,132,4.0,5.0,54,0.00,,,0.00,WeatherCatV1.20B785,2013-11-05 20:56:00,
2013-11-05 16:01:00,52.8,36.6,30.39,SE,129,2.0,6.0,54,0.00,,,0.00,WeatherCatV1.20B785,2013-11-05 21:01:00,
2013-11-05 16:06:00,52.6,36.9,30.39,SE,139,1.0,3.0,55,0.00,,,0.00,WeatherCatV1.20B785,2013-11-05 21:06:00,
2013-11-05 16:11:00,52.5,37.3,30.39,SSE,153,2.0,3.0,56,0.00,,,0.00,WeatherCatV1.20B785,2013-11-05 21:11:00,
2013-11-05 16:16:00,52.6,36.9,30.39,SE,141,2.0,2.0,55,0.00,,,0.00,WeatherCatV1.20B785,2013-11-05 21:16:00,
2013-11-05 16:21:00,52.7,36.5,30.39,SE,143,2.0,5.0,54,0.00,,,0.00,WeatherCatV1.20B785,2013-11-05 21:21:00,
2013-11-05 16:26:00,52.7,37.0,30.39,SE,132,3.0,6.0,55,0.00,,,0.00,WeatherCatV1.20B785,2013-11-05 21:26:00,
2013-11-05 16:31:00,52.7,36.5,30.39,ESE,121,1.0,3.0,54,0.00,,,0.00,WeatherCatV1.20B785,2013-11-05 21:31:00,
2013-11-05 16:36:00,52.7,36.0,30.39,SE,132,4.0,6.0,53,0.00,,,0.00,WeatherCatV1.20B785,2013-11-05 21:36:00,
2013-11-05 16:41:00,52.8,36.2,30.39,SE,134,2.0,4.0,53,0.00,,,0.00,WeatherCatV1.20B785,2013-11-05 21:41:00,
2013-11-05 16:46:00,52.7,36.5,30.39,ESE,110,3.0,4.0,54,0.00,,,0.00,WeatherCatV1.20B785,2013-11-05 21:46:00,
2013-11-05 16:51:00,52.5,36.3,30.38,SE,134,2.0,3.0,54,0.00,,,0.00,WeatherCatV1.20B785,2013-11-05 21:51:00,
2013-11-05 16:56:00,52.4,36.2,30.39,SSE,148,2.0,6.0,54,0.00,,,0.00,WeatherCatV1.20B785,2013-11-05 21:56:00,
2013-11-05 17:01:00,52.3,35.7,30.38,SE,132,4.0,5.0,53,0.00,,,0.00,WeatherCatV1.20B785,2013-11-05 22:01:00,
2013-11-05 17:06:00,52.3,35.7,30.38,SE,145,6.0,7.0,53,0.00,,,0.00,WeatherCatV1.20B785,2013-11-05 22:06:00,
2013-11-05 17:11:00,52.1,36.0,30.38,SE,141,5.0,6.0,54,0.00,,,0.00,WeatherCatV1.20B785,2013-11-05 22:11:00,
2013-11-05 17:16:00,52.0,35.4,30.38,SE,139,3.0,5.0,53,0.00,,,0.00,WeatherCatV1.20B785,2013-11-05 22:16:00,
2013-11-05 17:21:00,51.9,35.8,30.38,SSE,165,5.0,5.0,54,0.00,,,0.00,WeatherCatV1.20B785,2013-11-05 22:21:00,
2013-11-05 17:26:00,51.8,35.7,30.39,SSE,155,4.0,5.0,54,0.00,,,0.00,WeatherCatV1.20B785,2013-11-05 22:26:00,
2013-11-05 17:31:00,51.8,35.2,30.38,SE,126,5.0,6.0,53,0.00,,,0.00,WeatherCatV1.20B785,2013-11-05 22:31:00,
2013-11-05 17:36:00,51.7,35.6,30.38,SE,129,2.0,5.0,54,0.00,,,0.00,WeatherCatV1.20B785,2013-11-05 22:36:00,
2013-11-05 17:41:00,51.5,35.9,30.39,SSE,151,5.0,5.0,55,0.00,,,0.00,WeatherCatV1.20B785,2013-11-05 22:41:00,
2013-11-05 17:46:00,51.6,35.5,30.39,ESE,118,3.0,4.0,54,0.00,,,0.00,WeatherCatV1.20B785,2013-11-05 22:46:00,
2013-11-05 17:51:00,51.6,35.5,30.39,SE,141,2.0,3.0,54,0.00,,,0.00,WeatherCatV1.20B785,2013-11-05 22:51:00,
2013-11-05 17:56:00,51.3,35.7,30.38,SSE,153,2.0,4.0,55,0.00,,,0.00,WeatherCatV1.20B785,2013-11-05 22:56:00,
2013-11-05 18:01:00,51.0,35.4,30.39,SSE,148,2.0,4.0,55,0.00,,,0.00,WeatherCatV1.20B785,2013-11-05 23:01:00,
2013-11-05 18:06:00,51.0,35.4,30.39,SE,139,3.0,4.0,55,0.00,,,0.00,WeatherCatV1.20B785,2013-11-05 23:06:00,
2013-11-05 18:11:00,51.0,35.4,30.40,SSE,148,2.0,5.0,55,0.00,,,0.00,WeatherCatV1.20B785,2013-11-05 23:11:00,
2013-11-05 18:16:00,51.0,35.4,30.40,SE,129,2.0,5.0,55,0.00,,,0.00,WeatherCatV1.20B785,2013-11-05 23:16:00,
2013-11-05 18:21:00,50.9,35.3,30.39,SE,137,3.0,5.0,55,0.00,,,0.00,WeatherCatV1.20B785,2013-11-05 23:21:00,
2013-11-05 18:26:00,50.7,35.1,30.39,SE,130,2.0,3.0,55,0.00,,,0.00,WeatherCatV1.20B785,2013-11-05 23:26:00,
2013-11-05 18:31:00,50.5,35.4,30.39,SE,141,3.0,5.0,56,0.00,,,0.00,WeatherCatV1.20B785,2013-11-05 23:31:00,
2013-11-05 18:36:00,50.4,35.3,30.39,SSE,149,2.0,3.0,56,0.00,,,0.00,WeatherCatV1.20B785,2013-11-05 23:36:00,
2013-11-05 18:41:00,50.4,34.8,30.39,South,169,3.0,5.0,55,0.00,,,0.00,WeatherCatV1.20B785,2013-11-05 23:41:00,
2013-11-05 18:46:00,50.6,35.0,30.39,ESE,123,3.0,4.0,55,0.00,,,0.00,WeatherCatV1.20B785,2013-11-05 23:46:00,
2013-11-05 18:51:00,50.7,34.7,30.39,SSE,153,6.0,7.0,54,0.00,,,0.00,WeatherCatV1.20B785,2013-11-05 23:51:00,
2013-11-05 18:56:00,50.7,34.7,30.40,SSE,165,2.0,6.0,54,0.00,,,0.00,WeatherCatV1.20B785,2013-11-05 23:56:00,
2013-11-05 19:01:00,50.6,34.6,30.40,SSE,153,3.0,5.0,54,0.00,,,0.00,WeatherCatV1.20B785,2013-11-06 00:01:00,
2013-11-05 19:06:00,50.4,34.8,30.39,SSE,153,5.0,5.0,55,0.00,,,0.00,WeatherCatV1.20B785,2013-11-06 00:06:00,
2013-11-05 19:11:00,50.4,34.4,30.39,SE,137,4.0,6.0,54,0.00,,,0.00,WeatherCatV1.20B785,2013-11-06 00:11:00,
2013-11-05 19:16:00,50.3,34.3,30.39,SE,143,3.0,4.0,54,0.00,,,0.00,WeatherCatV1.20B785,2013-11-06 00:16:00,
2013-11-05 19:21:00,50.3,33.8,30.39,SSE,148,2.0,3.0,53,0.00,,,0.00,WeatherCatV1.20B785,2013-11-06 00:21:00,
2013-11-05 19:26:00,50.1,34.1,30.39,SE,141,2.0,3.0,54,0.00,,,0.00,WeatherCatV1.20B785,2013-11-06 00:26:00,
2013-11-05 19:31:00,49.8,33.8,30.39,ESE,110,2.0,4.0,54,0.00,,,0.00,WeatherCatV1.20B785,2013-11-06 00:31:00,
2013-11-05 19:36:00,49.7,33.7,30.38,SSE,153,3.0,3.0,54,0.00,,,0.00,WeatherCatV1.20B785,2013-11-06 00:36:00,
2013-11-05 19:41:00,49.4,33.9,30.37,SE,138,4.0,4.0,55,0.00,,,0.00,WeatherCatV1.20B785,2013-11-06 00:41:00,
2013-11-05 19:46:00,49.2,33.7,30.37,SE,141,2.0,4.0,55,0.00,,,0.00,WeatherCatV1.20B785,2013-11-06 00:46:00,
2013-11-05 19:51:00,48.9,33.5,30.36,SE,141,2.0,3.0,55,0.00,,,0.00,WeatherCatV1.20B785,2013-11-06 00:51:00,
2013-11-05 19:56:00,48.4,33.4,30.35,ESE,122,2.0,5.0,56,0.00,,,0.00,WeatherCatV1.20B785,2013-11-06 00:56:00,
2013-11-05 20:01:00,48.0,33.1,30.35,SE,141,3.0,5.0,56,0.00,,,0.00,WeatherCatV1.20B785,2013-11-06 01:01:00,
2013-11-05 20:06:00,48.1,32.7,30.35,SSE,158,4.0,7.0,55,0.00,,,0.00,WeatherCatV1.20B785,2013-11-06 01:06:00,
2013-11-05 20:11:00,48.2,32.8,30.35,SSE,156,6.0,6.0,55,0.00,,,0.00,WeatherCatV1.20B785,2013-11-06 01:11:00,
2013-11-05 20:16:00,48.2,32.3,30.35,ESE,113,4.0,4.0,54,0.00,,,0.00,WeatherCatV1.20B785,2013-11-06 01:16:00,
2013-11-05 20:21:00,48.3,32.4,30.35,SSE,148,2.0,3.0,54,0.00,,,0.00,WeatherCatV1.20B785,2013-11-06 01:21:00,
2013-11-05 20:26:00,48.1,32.2,30.35,ESE,118,5.0,5.0,54,0.00,,,0.00,WeatherCatV1.20B785,2013-11-06 01:26:00,
2013-11-05 20:31:00,48.0,31.7,30.34,SSE,149,4.0,7.0,53,0.00,,,0.00,WeatherCatV1.20B785,2013-11-06 01:31:00,
2013-11-05 20:36:00,48.0,31.7,30.34,SE,135,2.0,7.0,53,0.00,,,0.00,WeatherCatV1.20B785,2013-11-06 01:36:00,
2013-11-05 20:41:00,48.1,31.3,30.36,SSE,155,5.0,6.0,52,0.00,,,0.00,WeatherCatV1.20B785,2013-11-06 01:41:00,
2013-11-05 20:46:00,48.2,31.9,30.35,SE,141,2.0,4.0,53,0.00,,,0.00,WeatherCatV1.20B785,2013-11-06 01:46:00,
2013-11-05 20:51:00,48.2,31.9,30.35,SE,145,2.0,3.0,53,0.00,,,0.00,WeatherCatV1.20B785,2013-11-06 01:51:00,
2013-11-05 20:56:00,48.0,31.2,30.35,SSE,166,2.0,5.0,52,0.00,,,0.00,WeatherCatV1.20B785,2013-11-06 01:56:00,
2013-11-05 21:01:00,48.1,31.3,30.36,SE,144,2.0,3.0,52,0.00,,,0.00,WeatherCatV1.20B785,2013-11-06 02:01:00,
2013-11-05 21:06:00,48.1,31.3,30.36,SSE,152,4.0,7.0,52,0.00,,,0.00,WeatherCatV1.20B785,2013-11-06 02:06:00,
2013-11-05 21:11:00,48.1,31.3,30.35,SSE,153,5.0,5.0,52,0.00,,,0.00,WeatherCatV1.20B785,2013-11-06 02:11:00,
2013-11-05 21:16:00,47.9,31.1,30.36,SSE,152,3.0,4.0,52,0.00,,,0.00,WeatherCatV1.20B785,2013-11-06 02:16:00,
2013-11-05 21:21:00,47.9,30.6,30.36,SSE,152,5.0,7.0,51,0.00,,,0.00,WeatherCatV1.20B785,2013-11-06 02:21:00,
2013-11-05 21:26:00,48.0,30.3,30.36,SSE,163,4.0,8.0,50,0.00,,,0.00,WeatherCatV1.20B785,2013-11-06 02:26:00,
2013-11-05 21:31:00,48.0,30.3,30.35,SSE,149,4.0,7.0,50,0.00,,,0.00,WeatherCatV1.20B785,2013-11-06 02:31:00,
2013-11-05 21:36:00,47.9,30.2,30.35,SE,145,4.0,7.0,50,0.00,,,0.00,WeatherCatV1.20B785,2013-11-06 02:36:00,
2013-11-05 21:41:00,47.8,30.1,30.35,SSE,165,4.0,6.0,50,0.00,,,0.00,WeatherCatV1.20B785,2013-11-06 02:41:00,
2013-11-05 21:46:00,47.8,29.6,30.34,SSE,150,6.0,6.0,49,0.00,,,0.00,WeatherCatV1.20B785,2013-11-06 02:46:00,
2013-11-05 21:51:00,47.7,30.0,30.35,South,186,4.0,8.0,50,0.00,,,0.00,WeatherCatV1.20B785,2013-11-06 02:51:00,
2013-11-05 21:56:00,47.7,30.0,30.35,SSE,154,6.0,6.0,50,0.00,,,0.00,WeatherCatV1.20B785,2013-11-06 02:56:00,
2013-11-05 22:01:00,47.7,29.5,30.35,SE,144,3.0,5.0,49,0.00,,,0.00,WeatherCatV1.20B785,2013-11-06 03:01:00,
2013-11-05 22:06:00,47.6,29.9,30.35,SSE,150,2.0,3.0,50,0.00,,,0.00,WeatherCatV1.20B785,2013-11-06 03:06:00,
2013-11-05 22:11:00,47.6,29.4,30.35,SSE,149,5.0,5.0,49,0.00,,,0.00,WeatherCatV1.20B785,2013-11-06 03:11:00,
2013-11-05 22:16:00,47.6,28.9,30.35,SSE,156,5.0,7.0,48,0.00,,,0.00,WeatherCatV1.20B785,2013-11-06 03:16:00,
2013-11-05 22:21:00,47.6,29.4,30.35,SSE,149,2.0,6.0,49,0.00,,,0.00,WeatherCatV1.20B785,2013-11-06 03:21:00,
2013-11-05 22:26:00,47.4,29.2,30.35,SE,145,4.0,6.0,49,0.00,,,0.00,WeatherCatV1.20B785,2013-11-06 03:26:00,
2013-11-05 22:31:00,47.5,29.3,30.35,SSE,159,3.0,6.0,49,0.00,,,0.00,WeatherCatV1.20B785,2013-11-06 03:31:00,
2013-11-05 22:36:00,47.4,29.2,30.35,SSE,152,5.0,6.0,49,0.00,,,0.00,WeatherCatV1.20B785,2013-11-06 03:36:00,
2013-11-05 22:41:00,47.4,29.2,30.35,SSE,155,4.0,7.0,49,0.00,,,0.00,WeatherCatV1.20B785,2013-11-06 03:41:00,
2013-11-05 22:46:00,47.3,28.6,30.35,SSE,149,4.0,7.0,48,0.00,,,0.00,WeatherCatV1.20B785,2013-11-06 03:46:00,
2013-11-05 22:51:00,47.2,29.0,30.35,SE,143,2.0,7.0,49,0.00,,,0.00,WeatherCatV1.20B785,2013-11-06 03:51:00,
2013-11-05 22:56:00,47.1,28.4,30.34,SE,126,3.0,5.0,48,0.00,,,0.00,WeatherCatV1.20B785,2013-11-06 03:56:00,
2013-11-05 23:01:00,46.7,29.1,30.35,SSE,155,2.0,3.0,50,0.00,,,0.00,WeatherCatV1.20B785,2013-11-06 04:01:00,
2013-11-05 23:06:00,46.3,28.7,30.34,ESE,120,2.0,2.0,50,0.00,,,0.00,WeatherCatV1.20B785,2013-11-06 04:06:00,
2013-11-05 23:11:00,45.7,28.6,30.34,SSE,149,1.0,4.0,51,0.00,,,0.00,WeatherCatV1.20B785,2013-11-06 04:11:00,
2013-11-05 23:16:00,45.3,28.7,30.34,SE,125,2.0,3.0,52,0.00,,,0.00,WeatherCatV1.20B785,2013-11-06 04:16:00,
2013-11-05 23:21:00,44.8,28.7,30.34,SE,145,2.0,2.0,53,0.00,,,0.00,WeatherCatV1.20B785,2013-11-06 04:21:00,
2013-11-05 23:26:00,44.6,29.0,30.34,SE,132,1.0,2.0,54,0.00,,,0.00,WeatherCatV1.20B785,2013-11-06 04:26:00,
2013-11-05 23:31:00,44.3,29.2,30.33,SE,134,1.0,2.0,55,0.00,,,0.00,WeatherCatV1.20B785,2013-11-06 04:31:00,
2013-11-05 23:36:00,44.2,29.5,30.32,SE,129,2.0,3.0,56,0.00,,,0.00,WeatherCatV1.20B785,2013-11-06 04:36:00,
2013-11-05 23:41:00,44.4,29.3,30.33,SE,143,2.0,2.0,55,0.00,,,0.00,WeatherCatV1.20B785,2013-11-06 04:41:00,
2013-11-05 23:46:00,44.7,29.1,30.33,ESE,118,2.0,3.0,54,0.00,,,0.00,WeatherCatV1.20B785,2013-11-06 04:46:00,
2013-11-05 23:51:00,44.8,29.2,30.33,SE,130,2.0,3.0,54,0.00,,,0.00,WeatherCatV1.20B785,2013-11-06 04:51:00,
2013-11-05 23:56:00,44.8,28.7,30.33,SE,128,2.0,3.0,53,0.00,,,0.00,WeatherCatV1.20B785,2013-11-06 04:56:00,